Аэропорт
Оренбург (UWOO)

 UWOO / REN
ЗЦ Москва
Самара (UWWW)
Самара (UWWW)
 51.79580, 55.45670  / 387 ft

 UWOO 240530Z 22006MPS CAVOK 21/04 Q1005 R26/CLRD65 NOSIG RMK QFE743/0991

АИП UWOO
показать схемы
Название сценария Тип сценария Flight Simulator 9 Flight Simulator X Prepar3D v2 Prepar3D v3 Prepar3D v4 xPlane
Оренбург UWOO бесплатный
Оренбург UWOO, адаптированный под Prepar бесплатный

 

Аэропорт Оренбург-Центральный имени Юрия Алексеевича Гагарина (IATA: REN, ICAO: UWOO) — международный аэропорт федерального значения города Оренбурга. Расположен в 19 км восточнее города. 

Аэродром Оренбург класса Б, способен принимать самолёты Ил-76, Ту-154, Ту-204, Airbus A320, Boeing 737/757/767, Embraer 190/195, Sukhoi Superjet 100 и все более лёгкие, а также вертолёты всех типов.

Аэропорт является портом приписки авиакомпании «Оренбуржье».

Превышение КТА: 118 м

Магнитное склонение аэродрома: +11°

Местное время: UTC +5

Регламент работы: круглосуточно

 

Информация о ВПП и навигационном оборудовании:

ВПП Размеры, м Hпор, м МПУ взлета/посадки Освещение ВПП ДПРМ БПРМ ILS
08 2501×42 117,2 079° ОВИ-1 415 (WP) 843 (W) 109.900 (IWP)
26 2501×42 116,9 259° ОВИ-1 415 (LM) 843 (L) 109.300 (ILM)

 

VOR/DME - 113.600 (ORN)

 

Средства связи ОВД:

UWOO_R_APP - Оренбург-Круг - 120.400

UWOO_TWR - Оренбург-Вышка - 128.000

UWOO_ATIS - Оренбург-АТИС - 126.400

 

Диапазон кодов ответчика: 6725-6727, 6730-6731, 2462-2463

 



2019 © VATRUS division (Privacy Policy)